Lima, Peru
Current Conditions -  °F | °C
As of 2:00 PM on Friday 28 Nov 2014 (Local Time) from SPIM Reporting Station
Overcast Overcast  
Wind Chill: 72°   Ceiling: 1500
Heat Index: 72°   Visibility: 6mi
Dew Point: 63°   Wind: 9mph
Humidity: 73%   Direction: 200°SSW
Pressure: 29.85"   Gusts: NA
Location:  12.07°S, 77.05°W
Report Text: SPIM 281900Z 20008KT 160V220 9999 FEW013 OVC015 22/17 Q1011 NOSIG RMK PP000
Loading
Personal Weather Stations






























Interactive Weather Map New forecast layout! Learn more

10-Day Weather Forecast

Advertisements
Track Severe Weather on mobile